Time;durP1;ratioP1;P1;durP2;ratioP2;P2;SDS_P1;SDS_P2;PMS_P1;PMS_P2;Temp;Humidity;BMP_temperature;BMP_pressure;BME280_temperature;BME280_humidity;BME280_pressure;Samples;Min_cycle;Max_cycle;Signal;HPM_P1;HPM_P2
2023/03/26 00:01:04;;;;;;;7.00;4.97;;;;;;;9.98;nan;-24095.75;5012264;28;20184;-72
2023/03/26 00:03:31;;;;;;;7.90;5.47;;;;;;;9.34;nan;-24077.94;5011855;28;20196;-73
2023/03/26 00:06:06;;;;;;;8.37;5.43;;;;;;;9.98;nan;-24095.75;5026710;28;20182;-74
2023/03/26 00:08:35;;;;;;;8.83;5.77;;;;;;;9.66;nan;-24086.84;5012532;28;20204;-72
2023/03/26 00:11:02;;;;;;;9.37;5.57;;;;;;;9.93;nan;-24094.34;5012227;28;20174;-73
2023/03/26 00:13:28;;;;;;;7.17;4.50;;;;;;;9.99;nan;-24096.16;5011729;28;20342;-72
2023/03/26 00:15:54;;;;;;;8.83;4.27;;;;;;;10.17;nan;-24101.13;5011714;28;20263;-74
2023/03/26 00:18:23;;;;;;;13.43;6.10;;;;;;;10.07;nan;-24098.28;5011108;28;20184;-74
2023/03/26 00:20:49;;;;;;;13.57;6.30;;;;;;;9.98;nan;-24095.75;5010821;28;20608;-74
2023/03/26 00:23:14;;;;;;;10.20;6.17;;;;;;;9.71;nan;-24088.41;5004841;28;20200;-73
2023/03/26 00:25:42;;;;;;;8.03;5.50;;;;;;;10.06;nan;-24098.16;5009244;28;20674;-72
2023/03/26 00:28:08;;;;;;;12.63;6.80;;;;;;;10.17;nan;-24101.25;5011649;28;20184;-74
2023/03/26 00:30:34;;;;;;;14.20;7.07;;;;;;;9.94;nan;-24094.75;5010235;28;20180;-73
2023/03/26 00:33:01;;;;;;;11.00;6.70;;;;;;;10.15;nan;-24100.69;5011062;28;20242;-73
2023/03/26 00:35:28;;;;;;;8.07;5.70;;;;;;;10.31;nan;-24104.94;5011804;28;20258;-73
2023/03/26 00:37:53;;;;;;;10.23;5.67;;;;;;;10.33;nan;-24105.63;5011449;28;20175;-73
2023/03/26 00:40:19;;;;;;;12.97;6.83;;;;;;;10.55;nan;-24111.84;5011395;28;20709;-72
2023/03/26 00:42:44;;;;;;;9.60;6.20;;;;;;;10.85;nan;-24120.16;5011498;28;20176;-73
2023/03/26 00:45:10;;;;;;;9.43;6.07;;;;;;;10.87;nan;-24120.59;5011149;28;20172;-73
2023/03/26 00:47:36;;;;;;;12.23;6.30;;;;;;;10.62;nan;-24113.69;5011198;28;20607;-73
2023/03/26 00:50:03;;;;;;;10.87;6.20;;;;;;;10.95;nan;-24123.00;5011286;28;20172;-72
2023/03/26 00:52:29;;;;;;;12.17;6.37;;;;;;;11.29;nan;-24132.28;5011522;28;20207;-73
2023/03/26 00:54:54;;;;;;;9.83;6.03;;;;;;;10.97;nan;-24123.53;5023397;28;20686;-74
2023/03/26 00:57:21;;;;;;;8.47;5.50;;;;;;;11.16;nan;-24128.63;5008094;28;20366;-73
2023/03/26 00:59:48;;;;;;;17.67;6.30;;;;;;;11.55;nan;-24139.47;5011439;28;20210;-73
2023/03/26 01:02:17;;;;;;;12.45;6.25;;;;;;;11.69;nan;-24143.56;5043911;28;20718;-73
2023/03/26 01:05:01;;;;;;;10.80;5.88;;;;;;;11.49;nan;-24137.94;5011681;28;20266;-73
2023/03/26 01:07:27;;;;;;;9.98;6.03;;;;;;;11.50;nan;-24138.22;5011600;28;20522;-74
2023/03/26 01:09:56;;;;;;;12.32;5.72;;;;;;;11.57;nan;-24140.03;5015127;28;20615;-72
2023/03/26 01:12:26;;;;;;;11.77;5.93;;;;;;;11.69;nan;-24143.41;5014739;28;20200;-73
2023/03/26 01:14:55;;;;;;;11.95;5.68;;;;;;;11.75;nan;-24145.25;5015410;28;20555;-73
2023/03/26 01:17:22;;;;;;;10.20;6.55;;;;;;;11.97;nan;-24151.16;5013515;28;20283;-73
2023/03/26 01:19:53;;;;;;;8.65;5.13;;;;;;;12.22;nan;-24158.34;5029976;28;20740;-74
2023/03/26 01:22:26;;;;;;;8.57;5.75;;;;;;;12.14;nan;-24155.97;5015002;28;20168;-73
2023/03/26 01:24:52;;;;;;;12.40;5.97;;;;;;;11.97;nan;-24151.16;5014524;28;20710;-73
2023/03/26 01:27:23;;;;;;;12.38;6.43;;;;;;;12.08;nan;-24154.41;5015055;28;20179;-74
2023/03/26 01:29:54;;;;;;;8.25;5.78;;;;;;;12.08;nan;-24154.41;5014585;28;20536;-73
2023/03/26 01:32:54;;;;;;;7.28;5.22;;;;;;;11.98;nan;-24151.59;5030263;28;20564;-73
2023/03/26 01:35:41;;;;;;;8.98;5.28;;;;;;;11.65;nan;-24142.28;5029251;28;20180;-73
2023/03/26 01:38:12;;;;;;;6.82;4.88;;;;;;;11.97;nan;-24151.16;5030157;28;20263;-75
2023/03/26 01:41:11;;;;;;;7.95;5.05;;;;;;;11.73;nan;-24144.69;5014260;28;20168;-73
2023/03/26 01:43:46;;;;;;;8.07;5.20;;;;;;;12.16;nan;-24156.53;5012655;28;20176;-74
2023/03/26 01:46:14;;;;;;;10.48;6.20;;;;;;;11.93;nan;-24150.19;5013909;28;20228;-74
2023/03/26 01:48:42;;;;;;;8.45;5.30;;;;;;;12.05;nan;-24153.41;5014097;28;20184;-73
2023/03/26 01:51:09;;;;;;;7.47;5.28;;;;;;;11.97;nan;-24151.16;5014328;28;20169;-73
2023/03/26 01:53:40;;;;;;;7.45;5.00;;;;;;;12.07;nan;-24154.13;5014220;28;20187;-74
2023/03/26 01:56:24;;;;;;;8.07;5.35;;;;;;;12.14;nan;-24156.09;5014174;28;20171;-74
2023/03/26 03:56:47;;;;;;;1.20;1.10;;;;;;;12.42;nan;-24163.69;4989464;28;20735;-73
2023/03/26 03:59:14;;;;;;;1.48;1.38;;;;;;;12.19;nan;-24157.38;5010424;28;20597;-73
2023/03/26 04:01:42;;;;;;;1.67;1.50;;;;;;;12.03;nan;-24153.00;5011912;28;20187;-73
2023/03/26 04:04:07;;;;;;;1.55;1.45;;;;;;;11.57;nan;-24140.19;5010797;28;20531;-72
2023/03/26 04:06:33;;;;;;;1.50;1.40;;;;;;;11.99;nan;-24151.72;5011556;28;20179;-73
2023/03/26 04:08:58;;;;;;;1.60;1.50;;;;;;;11.66;nan;-24142.56;5010549;28;20211;-74
2023/03/26 04:11:24;;;;;;;1.58;1.42;;;;;;;11.74;nan;-24144.97;5010428;28;20616;-73
2023/03/26 04:13:49;;;;;;;1.40;1.13;;;;;;;11.50;nan;-24138.22;5011576;28;20494;-73
2023/03/26 04:16:16;;;;;;;1.25;1.20;;;;;;;11.53;nan;-24139.19;5012186;28;20172;-73
2023/03/26 04:18:43;;;;;;;1.42;1.30;;;;;;;11.62;nan;-24141.44;5010384;28;20195;-73
2023/03/26 04:21:11;;;;;;;1.33;1.23;;;;;;;11.59;nan;-24140.75;5011412;28;20545;-74
2023/03/26 04:23:37;;;;;;;1.33;1.23;;;;;;;11.74;nan;-24144.84;5011870;28;20175;-74
2023/03/26 04:26:05;;;;;;;1.23;1.13;;;;;;;11.40;nan;-24135.38;5011460;28;20177;-73
2023/03/26 04:28:41;;;;;;;1.50;1.40;;;;;;;11.69;nan;-24143.41;5011260;28;20176;-74
2023/03/26 04:31:14;;;;;;;1.33;1.23;;;;;;;11.56;nan;-24139.75;5011927;28;20243;-73
2023/03/26 04:33:45;;;;;;;1.42;1.33;;;;;;;11.17;nan;-24128.91;5012027;28;20175;-75
2023/03/26 04:36:12;;;;;;;1.45;1.35;;;;;;;11.76;nan;-24145.53;5010386;28;20172;-74
2023/03/26 04:38:44;;;;;;;1.55;1.40;;;;;;;11.58;nan;-24140.31;5011971;28;20200;-74
2023/03/26 04:41:12;;;;;;;1.60;1.50;;;;;;;11.62;nan;-24141.59;5011796;28;20221;-74
2023/03/26 04:43:41;;;;;;;1.33;1.23;;;;;;;11.64;nan;-24142.16;5013533;28;20172;-74
2023/03/26 04:46:09;;;;;;;1.95;1.60;;;;;;;11.48;nan;-24137.63;5015507;28;20167;-73
2023/03/26 04:48:35;;;;;;;1.42;1.33;;;;;;;11.77;nan;-24145.69;5015319;28;20683;-73
2023/03/26 04:51:01;;;;;;;1.50;1.40;;;;;;;11.89;nan;-24149.06;5015463;28;20175;-74
2023/03/26 04:53:26;;;;;;;1.52;1.27;;;;;;;11.82;nan;-24147.09;5014971;28;20188;-73
2023/03/26 04:55:58;;;;;;;2.05;1.60;;;;;;;11.99;nan;-24151.72;5014206;28;20183;-73
2023/03/26 04:58:31;;;;;;;1.58;1.40;;;;;;;11.85;nan;-24148.06;5015134;28;20219;-74
2023/03/26 05:00:59;;;;;;;2.35;1.63;;;;;;;11.69;nan;-24143.56;5015222;28;20664;-74
2023/03/26 05:03:30;;;;;;;1.70;1.40;;;;;;;12.11;nan;-24155.25;5015256;28;20176;-72
2023/03/26 05:05:57;;;;;;;1.83;1.73;;;;;;;12.20;nan;-24157.66;5015107;28;20176;-73
2023/03/26 05:08:23;;;;;;;1.90;1.52;;;;;;;11.91;nan;-24149.63;5015244;28;20180;-73
2023/03/26 05:10:48;;;;;;;2.38;1.70;;;;;;;12.34;nan;-24161.72;5014900;28;20172;-73
2023/03/26 05:13:14;;;;;;;1.63;1.52;;;;;;;12.15;nan;-24156.38;5013744;28;20577;-74
2023/03/26 05:15:39;;;;;;;2.03;1.60;;;;;;;12.37;nan;-24162.44;5013325;28;20176;-75
2023/03/26 05:18:07;;;;;;;1.60;1.50;;;;;;;12.30;nan;-24160.59;5013271;28;20261;-73
2023/03/26 05:20:33;;;;;;;1.48;1.38;;;;;;;12.36;nan;-24162.28;5014175;28;20282;-73
2023/03/26 05:22:58;;;;;;;1.92;1.65;;;;;;;12.45;nan;-24164.69;5013237;28;20222;-73
2023/03/26 05:25:24;;;;;;;1.63;1.30;;;;;;;8.62;nan;-24057.72;5014592;28;20179;-74
2023/03/26 05:27:49;;;;;;;1.55;1.45;;;;;;;12.55;nan;-24167.34;5014436;28;20603;-74
2023/03/26 05:30:19;;;;;;;1.60;1.50;;;;;;;12.29;nan;-24160.31;5014562;28;20510;-74
2023/03/26 05:32:47;;;;;;;1.45;1.35;;;;;;;12.60;nan;-24168.75;5014265;28;20230;-74
2023/03/26 05:35:15;;;;;;;1.63;1.50;;;;;;;12.67;nan;-24170.88;5012822;28;20195;-73
2023/03/26 05:37:42;;;;;;;1.98;1.70;;;;;;;12.86;nan;-24176.06;5014539;28;20172;-73
2023/03/26 05:40:10;;;;;;;7.60;1.50;;;;;;;12.58;nan;-24168.34;5015627;28;20192;-74
2023/03/26 05:42:39;;;;;;;2.50;1.60;;;;;;;12.68;nan;-24171.16;5013087;28;20190;-74
2023/03/26 05:45:07;;;;;;;1.58;1.40;;;;;;;12.59;nan;-24168.47;5013767;28;20184;-72
2023/03/26 05:47:33;;;;;;;5.32;1.30;;;;;;;12.80;nan;-24174.38;5013649;28;20270;-74
2023/03/26 05:49:58;;;;;;;1.60;1.50;;;;;;;13.03;nan;-24180.84;5014738;28;20176;-74
2023/03/26 05:52:24;;;;;;;1.50;1.40;;;;;;;12.93;nan;-24177.91;5013445;28;20180;-74
2023/03/26 05:54:50;;;;;;;1.55;1.45;;;;;;;13.04;nan;-24181.13;5014637;28;20489;-73
2023/03/26 05:57:16;;;;;;;1.60;1.50;;;;;;;13.06;nan;-24181.69;5013144;28;20426;-75
2023/03/26 05:59:41;;;;;;;1.63;1.52;;;;;;;12.99;nan;-24179.72;5014501;28;20199;-74
2023/03/26 06:02:08;;;;;;;1.83;1.60;;;;;;;13.24;nan;-24186.63;5013195;28;20176;-74
2023/03/26 06:04:34;;;;;;;2.55;1.50;;;;;;;12.78;nan;-24173.81;5029883;28;20215;-72
2023/03/26 06:07:01;;;;;;;1.55;1.42;;;;;;;12.74;nan;-24172.84;5014162;28;20200;-70
2023/03/26 06:09:26;;;;;;;1.45;1.35;;;;;;;13.51;nan;-24194.06;5014177;28;20651;-72
2023/03/26 06:11:51;;;;;;;2.47;1.65;;;;;;;10.67;nan;-24115.09;5013786;28;20256;-71
2023/03/26 06:14:17;;;;;;;2.55;1.30;;;;;;;13.08;nan;-24182.25;5013981;28;20183;-70
2023/03/26 06:16:42;;;;;;;1.60;1.50;;;;;;;13.71;nan;-24199.69;5013481;28;20561;-71
2023/03/26 06:19:08;;;;;;;1.70;1.60;;;;;;;13.32;nan;-24188.88;5013746;28;20652;-71
2023/03/26 06:21:33;;;;;;;1.80;1.50;;;;;;;13.57;nan;-24195.75;5013846;28;20172;-73
2023/03/26 06:23:58;;;;;;;2.15;1.20;;;;;;;13.83;nan;-24203.03;5013690;28;20731;-74
2023/03/26 06:26:24;;;;;;;1.38;1.27;;;;;;;14.09;nan;-24210.34;5012844;28;20199;-74
2023/03/26 06:28:50;;;;;;;1.70;1.60;;;;;;;14.07;nan;-24209.63;5013177;28;20195;-73
2023/03/26 06:31:17;;;;;;;2.00;1.70;;;;;;;14.08;nan;-24210.06;5013267;28;20180;-72
2023/03/26 06:33:43;;;;;;;2.72;1.70;;;;;;;13.94;nan;-24206.13;5011696;28;20183;-73
2023/03/26 06:36:09;;;;;;;2.67;1.83;;;;;;;14.31;nan;-24216.38;5012826;28;20180;-72
2023/03/26 06:38:34;;;;;;;1.75;1.50;;;;;;;14.45;nan;-24220.16;5013143;28;20632;-74
2023/03/26 06:41:06;;;;;;;2.17;1.60;;;;;;;14.38;nan;-24218.22;5013120;28;20180;-75
2023/03/26 06:43:32;;;;;;;1.90;1.60;;;;;;;14.66;nan;-24225.91;5011502;28;20172;-74
2023/03/26 06:46:02;;;;;;;2.03;1.30;;;;;;;14.14;nan;-24211.59;5011398;28;20271;-74
2023/03/26 06:48:27;;;;;;;1.45;1.35;;;;;;;14.53;nan;-24222.41;5012677;28;20180;-73
2023/03/26 06:50:53;;;;;;;1.40;1.30;;;;;;;14.31;nan;-24216.38;5013283;28;20186;-75
2023/03/26 06:53:19;;;;;;;1.95;1.60;;;;;;;14.34;nan;-24217.22;5013226;28;20172;-76
2023/03/26 06:55:44;;;;;;;1.67;1.52;;;;;;;14.47;nan;-24220.72;5012004;28;20228;-73
2023/03/26 06:58:11;;;;;;;1.70;1.50;;;;;;;14.66;nan;-24226.06;5012960;28;20302;-76
2023/03/26 07:00:37;;;;;;;1.70;1.60;;;;;;;15.02;nan;-24236.00;5012812;28;20200;-74
2023/03/26 07:03:03;;;;;;;2.08;1.42;;;;;;;14.79;nan;-24229.69;5012922;28;20234;-74
2023/03/26 07:05:29;;;;;;;2.40;1.60;;;;;;;15.04;nan;-24236.72;5011299;28;20180;-75
2023/03/26 07:07:54;;;;;;;1.40;1.30;;;;;;;15.06;nan;-24237.13;5011698;28;20187;-74
2023/03/26 07:10:20;;;;;;;1.65;1.33;;;;;;;14.96;nan;-24234.47;5012596;28;20183;-73
2023/03/26 07:12:45;;;;;;;1.70;1.50;;;;;;;15.02;nan;-24236.00;5012511;28;20176;-73
2023/03/26 07:15:11;;;;;;;1.40;1.30;;;;;;;15.15;nan;-24239.66;5012858;28;20187;-74
2023/03/26 07:17:36;;;;;;;1.63;1.30;;;;;;;15.27;nan;-24242.88;5006289;28;20640;-72
2023/03/26 07:20:03;;;;;;;6.88;1.80;;;;;;;15.13;nan;-24238.94;5027520;28;20699;-76
2023/03/26 07:22:29;;;;;;;1.60;1.35;;;;;;;15.18;nan;-24240.34;5011060;28;20199;-73
2023/03/26 07:24:55;;;;;;;1.50;1.40;;;;;;;15.11;nan;-24238.53;5012574;28;20184;-74
2023/03/26 07:27:43;;;;;;;1.60;1.50;;;;;;;15.53;nan;-24250.16;5044270;28;20191;-74
2023/03/26 07:30:18;;;;;;;1.35;1.25;;;;;;;15.53;nan;-24250.03;5012928;28;20169;-74
2023/03/26 07:32:51;;;;;;;1.40;1.30;;;;;;;15.26;nan;-24242.59;5012469;28;20168;-73
2023/03/26 07:35:22;;;;;;;1.40;1.30;;;;;;;15.24;nan;-24242.03;5012468;28;20255;-74
2023/03/26 07:37:55;;;;;;;1.60;1.50;;;;;;;15.64;nan;-24253.09;5027376;28;20192;-72
2023/03/26 07:40:36;;;;;;;2.38;1.38;;;;;;;15.65;nan;-24253.50;5027240;28;20281;-75
2023/03/26 07:43:11;;;;;;;1.30;1.20;;;;;;;15.68;nan;-24254.22;5012794;28;20176;-75
2023/03/26 07:45:39;;;;;;;1.60;1.38;;;;;;;15.70;nan;-24254.91;5011495;28;20713;-74
2023/03/26 07:48:19;;;;;;;2.42;1.77;;;;;;;15.92;nan;-24260.94;5010868;28;20176;-72
2023/03/26 07:50:46;;;;;;;1.90;1.33;;;;;;;15.65;nan;-24253.38;5012157;28;20674;-72
2023/03/26 07:53:12;;;;;;;1.42;1.30;;;;;;;15.69;nan;-24254.63;5011173;28;20265;-74
2023/03/26 07:55:47;;;;;;;5.65;1.38;;;;;;;15.93;nan;-24261.22;5027587;28;20314;-79
2023/03/26 07:58:44;;;;;;;2.28;1.90;;;;;;;16.14;nan;-24266.94;5010810;28;20261;-71
2023/03/26 08:01:19;;;;;;;1.40;1.30;;;;;;;16.10;nan;-24265.97;5011582;28;20558;-76
2023/03/26 08:04:11;;;;;;;1.73;1.23;;;;;;;16.29;nan;-24271.13;5012268;28;20177;-74
2023/03/26 08:06:38;;;;;;;1.60;1.35;;;;;;;16.14;nan;-24266.94;5012707;28;20204;-72
2023/03/26 08:09:28;;;;;;;1.98;1.40;;;;;;;16.52;nan;-24277.44;5012216;28;20176;-72
2023/03/26 08:12:02;;;;;;;1.67;1.40;;;;;;;16.13;nan;-24266.81;5012110;28;20574;-74
2023/03/26 08:15:15;;;;;;;2.90;1.38;;;;;;;16.04;nan;-24264.28;5012586;28;20478;-71
2023/03/26 08:17:56;;;;;;;2.25;1.67;;;;;;;16.10;nan;-24265.81;5011334;28;20191;-72
2023/03/26 08:20:29;;;;;;;2.25;1.58;;;;;;;16.23;nan;-24269.47;5012433;28;20281;-71
2023/03/26 08:23:05;;;;;;;3.08;1.83;;;;;;;16.15;nan;-24267.22;5012976;28;20236;-70
2023/03/26 08:25:58;;;;;;;1.50;1.40;;;;;;;16.17;nan;-24267.94;5014189;28;20291;-71
2023/03/26 08:28:36;;;;;;;1.92;1.70;;;;;;;16.27;nan;-24270.59;5012611;28;20730;-71
2023/03/26 08:31:02;;;;;;;2.47;1.73;;;;;;;16.32;nan;-24271.97;5012285;28;20179;-70
2023/03/26 08:33:29;;;;;;;2.15;1.58;;;;;;;15.02;nan;-24236.00;5012098;28;20176;-73
2023/03/26 08:35:55;;;;;;;1.60;1.30;;;;;;;16.36;nan;-24273.09;5012105;28;20176;-72
2023/03/26 08:38:20;;;;;;;2.70;1.38;;;;;;;16.42;nan;-24274.63;5012443;28;20342;-72
2023/03/26 08:41:10;;;;;;;1.60;1.50;;;;;;;16.48;nan;-24276.31;5011707;28;20204;-72
2023/03/26 08:43:41;;;;;;;2.30;1.60;;;;;;;16.55;nan;-24278.28;5012416;28;20164;-72
2023/03/26 08:46:14;;;;;;;1.90;1.45;;;;;;;16.86;nan;-24286.78;5012376;28;20251;-74
2023/03/26 08:49:04;;;;;;;1.48;1.38;;;;;;;16.77;nan;-24284.41;5026800;28;20191;-75
2023/03/26 08:51:44;;;;;;;2.30;1.80;;;;;;;16.77;nan;-24284.56;5012817;28;20169;-73
2023/03/26 08:54:28;;;;;;;2.63;1.30;;;;;;;16.72;nan;-24283.16;5011921;28;20558;-72
2023/03/26 08:57:34;;;;;;;3.17;1.40;;;;;;;16.92;nan;-24288.63;5011482;28;20176;-72
2023/03/26 09:00:17;;;;;;;1.77;1.45;;;;;;;17.07;nan;-24292.66;5011572;28;20199;-72
2023/03/26 09:02:52;;;;;;;3.33;1.33;;;;;;;17.26;nan;-24297.81;5011119;28;20184;-71
2023/03/26 09:05:49;;;;;;;1.20;1.10;;;;;;;17.23;nan;-24297.28;5011720;28;20175;-71
2023/03/26 09:08:37;;;;;;;1.77;1.40;;;;;;;17.35;nan;-24300.47;5011670;28;20234;-73
2023/03/26 09:11:26;;;;;;;2.10;1.80;;;;;;;17.32;nan;-24299.63;4373371;28;20766;-72
2023/03/26 09:14:10;;;;;;;1.58;1.40;;;;;;;17.26;nan;-24297.81;4312565;28;20728;-72
2023/03/26 09:16:56;;;;;;;1.75;1.63;;;;;;;17.41;nan;-24302.16;4301248;28;20861;-72
2023/03/26 09:19:48;;;;;;;2.70;1.80;;;;;;;17.61;nan;-24307.59;4312927;28;21612;-74
2023/03/26 09:22:42;;;;;;;1.40;1.30;;;;;;;17.59;nan;-24307.19;4682755;28;20283;-72
2023/03/26 09:25:34;;;;;;;1.77;1.40;;;;;;;17.71;nan;-24310.25;5011585;28;20566;-73
2023/03/26 09:28:15;;;;;;;2.13;1.40;;;;;;;17.91;nan;-24315.81;5010747;28;20192;-73
2023/03/26 09:31:16;;;;;;;2.10;1.30;;;;;;;17.91;nan;-24315.81;5011699;28;20230;-73
2023/03/26 09:34:06;;;;;;;2.35;1.50;;;;;;;17.92;nan;-24316.25;5015513;28;20172;-73
2023/03/26 09:36:46;;;;;;;1.63;1.30;;;;;;;17.55;nan;-24305.91;5008762;28;20195;-73
2023/03/26 09:39:27;;;;;;;1.40;1.30;;;;;;;17.72;nan;-24310.53;4998758;28;20302;-72
2023/03/26 09:42:28;;;;;;;1.30;1.17;;;;;;;18.34;nan;-24327.81;5015822;28;20215;-73
2023/03/26 09:45:25;;;;;;;1.98;1.42;;;;;;;18.48;nan;-24331.72;5001595;28;20180;-72
2023/03/26 09:48:04;;;;;;;1.25;1.15;;;;;;;18.41;nan;-24329.63;5015138;28;20242;-74
2023/03/26 09:50:36;;;;;;;1.55;1.40;;;;;;;18.24;nan;-24324.88;5014604;28;20172;-72
2023/03/26 09:53:23;;;;;;;4.15;1.75;;;;;;;18.26;nan;-24325.59;5008379;28;20184;-72
2023/03/26 09:56:07;;;;;;;3.33;1.50;;;;;;;18.31;nan;-24326.84;4999573;28;20192;-71
2023/03/26 09:59:02;;;;;;;6.43;1.50;;;;;;;18.27;nan;-24325.88;5010757;28;20239;-73
2023/03/26 10:01:43;;;;;;;1.50;1.30;;;;;;;18.13;nan;-24321.97;4999508;28;20176;-71
2023/03/26 10:04:45;;;;;;;2.05;1.58;;;;;;;18.22;nan;-24324.34;5014586;28;20176;-73
2023/03/26 10:07:11;;;;;;;4.57;1.50;;;;;;;18.20;nan;-24323.91;5015233;28;20175;-76
2023/03/26 10:09:42;;;;;;;2.05;1.35;;;;;;;18.21;nan;-24324.19;5014960;28;20551;-73
2023/03/26 10:12:30;;;;;;;1.83;1.50;;;;;;;18.26;nan;-24325.59;5046120;28;20171;-73
2023/03/26 10:14:58;;;;;;;1.20;1.10;;;;;;;18.25;nan;-24325.16;5014211;28;20570;-72
2023/03/26 10:17:42;;;;;;;1.30;1.20;;;;;;;18.58;nan;-24334.22;5014414;28;20270;-73
2023/03/26 10:20:11;;;;;;;2.05;1.45;;;;;;;18.76;nan;-24339.25;5014499;28;20199;-72
2023/03/26 10:23:14;;;;;;;3.00;2.08;;;;;;;18.89;nan;-24343.00;5014190;28;20632;-72
2023/03/26 10:26:00;;;;;;;1.75;1.40;;;;;;;18.98;nan;-24345.38;5014119;28;20180;-74
2023/03/26 10:28:58;;;;;;;1.00;1.00;;;;;;;19.03;nan;-24346.75;5013300;28;20172;-74
2023/03/26 10:31:41;;;;;;;1.60;1.20;;;;;;;18.97;nan;-24345.09;5013598;28;20639;-72
2023/03/26 10:34:15;;;;;;;3.58;1.20;;;;;;;19.21;nan;-24351.63;5013932;28;20168;-74
2023/03/26 10:37:21;;;;;;;2.17;1.38;;;;;;;19.00;nan;-24345.91;5013851;28;20180;-72
2023/03/26 10:40:28;;;;;;;1.95;1.25;;;;;;;19.40;nan;-24357.06;5012298;28;20245;-72
2023/03/26 10:43:27;;;;;;;1.05;1.00;;;;;;;19.35;nan;-24355.66;5011399;28;20198;-73
2023/03/26 10:46:17;;;;;;;1.25;1.13;;;;;;;19.25;nan;-24352.75;5013417;28;20176;-73
2023/03/26 10:49:02;;;;;;;1.33;1.00;;;;;;;19.10;nan;-24348.56;5012979;28;20175;-72
2023/03/26 10:51:33;;;;;;;1.20;1.10;;;;;;;19.49;nan;-24359.41;5013468;28;20658;-73
2023/03/26 10:54:12;;;;;;;2.03;1.20;;;;;;;19.44;nan;-24357.88;5013127;28;20267;-72
2023/03/26 10:56:43;;;;;;;1.25;1.10;;;;;;;19.63;nan;-24363.16;5012643;28;20179;-74
2023/03/26 10:59:12;;;;;;;1.20;1.10;;;;;;;19.59;nan;-24362.19;5001088;28;20242;-73
2023/03/26 11:02:09;;;;;;;2.78;1.25;;;;;;;19.62;nan;-24363.03;5031116;28;20188;-72
2023/03/26 11:04:51;;;;;;;1.25;1.05;;;;;;;19.53;nan;-24360.53;4997942;28;20784;-73
2023/03/26 11:07:33;;;;;;;2.25;1.73;;;;;;;19.27;nan;-24353.28;4999944;28;20644;-72
2023/03/26 11:10:14;;;;;;;1.25;1.10;;;;;;;19.13;nan;-24349.53;4998542;28;20582;-74
2023/03/26 11:13:18;;;;;;;0.90;0.90;;;;;;;19.59;nan;-24362.06;4998907;28;20662;-75
2023/03/26 11:16:01;;;;;;;1.60;1.25;;;;;;;19.70;nan;-24365.13;4999662;28;20674;-74
2023/03/26 11:18:43;;;;;;;1.02;1.02;;;;;;;20.01;nan;-24373.72;4997943;28;20662;-72
2023/03/26 11:21:30;;;;;;;1.20;1.10;;;;;;;20.10;nan;-24376.25;4998844;28;20181;-77
2023/03/26 11:24:11;;;;;;;1.30;1.20;;;;;;;19.99;nan;-24373.19;4999524;28;20245;-75
2023/03/26 11:26:57;;;;;;;0.85;0.85;;;;;;;20.02;nan;-24374.00;5002062;28;20199;-73
2023/03/26 11:29:53;;;;;;;1.45;1.15;;;;;;;19.90;nan;-24370.69;4999759;28;20649;-74
2023/03/26 11:32:39;;;;;;;1.58;0.90;;;;;;;19.24;nan;-24352.59;4999628;28;20180;-74
2023/03/26 11:35:16;;;;;;;1.05;1.00;;;;;;;19.83;nan;-24368.88;4997749;28;20191;-72
2023/03/26 11:38:06;;;;;;;0.95;0.90;;;;;;;19.83;nan;-24368.88;4998439;28;20183;-73
2023/03/26 11:40:40;;;;;;;1.35;1.17;;;;;;;20.02;nan;-24373.88;4996327;28;20201;-73
2023/03/26 11:43:10;;;;;;;1.95;0.90;;;;;;;20.15;nan;-24377.47;4998117;28;20292;-73
2023/03/26 11:45:40;;;;;;;0.80;0.80;;;;;;;20.33;nan;-24382.34;4998760;28;20188;-72
2023/03/26 11:48:37;;;;;;;1.35;1.10;;;;;;;20.55;nan;-24388.47;4998112;28;20270;-74
2023/03/26 11:51:13;;;;;;;1.10;1.00;;;;;;;20.51;nan;-24387.50;4998015;28;20176;-73
2023/03/26 11:53:39;;;;;;;0.90;0.85;;;;;;;19.79;nan;-24367.75;4998777;28;20293;-74
2023/03/26 11:56:14;;;;;;;1.20;1.10;;;;;;;20.66;nan;-24391.66;4999011;28;20207;-75
2023/03/26 11:59:04;;;;;;;1.73;0.98;;;;;;;20.56;nan;-24388.75;4999571;28;20325;-76
2023/03/26 12:01:49;;;;;;;1.27;1.05;;;;;;;20.31;nan;-24381.78;4997648;28;20238;-72
2023/03/26 12:04:25;;;;;;;1.20;0.70;;;;;;;19.90;nan;-24370.69;4998717;28;20253;-74
2023/03/26 12:07:03;;;;;;;1.92;1.42;;;;;;;20.34;nan;-24382.78;4996858;28;20256;-75
2023/03/26 12:09:29;;;;;;;1.20;1.10;;;;;;;20.25;nan;-24380.25;4998236;28;20326;-74
2023/03/26 12:11:59;;;;;;;1.05;0.95;;;;;;;20.45;nan;-24385.69;4998772;28;20184;-78
2023/03/26 12:14:27;;;;;;;0.98;0.85;;;;;;;20.27;nan;-24380.81;4996671;28;20188;-74
2023/03/26 12:17:13;;;;;;;1.10;1.00;;;;;;;20.34;nan;-24382.63;4999290;28;20345;-74
2023/03/26 12:19:44;;;;;;;1.35;1.00;;;;;;;20.19;nan;-24378.75;4998889;28;20278;-74
2023/03/26 12:22:32;;;;;;;1.02;0.93;;;;;;;20.38;nan;-24383.75;4997798;28;20235;-75
2023/03/26 12:25:17;;;;;;;1.05;0.98;;;;;;;20.62;nan;-24390.41;4993835;28;20189;-74
2023/03/26 12:27:47;;;;;;;2.83;1.27;;;;;;;20.78;nan;-24394.84;5025353;28;20188;-73
2023/03/26 12:30:20;;;;;;;2.15;1.17;;;;;;;20.63;nan;-24390.81;5024284;28;20200;-74
2023/03/26 12:32:47;;;;;;;1.10;1.00;;;;;;;20.53;nan;-24387.91;5031246;28;20249;-76
2023/03/26 12:35:17;;;;;;;1.20;1.00;;;;;;;20.68;nan;-24392.06;5012015;28;20191;-76
2023/03/26 12:37:44;;;;;;;1.10;0.98;;;;;;;20.43;nan;-24385.13;5012643;28;20566;-74
2023/03/26 12:40:24;;;;;;;0.80;0.80;;;;;;;20.51;nan;-24387.34;5010166;28;20217;-76
2023/03/26 12:42:52;;;;;;;1.42;1.00;;;;;;;20.47;nan;-24386.25;5011649;28;20172;-74
2023/03/26 12:45:26;;;;;;;1.33;1.05;;;;;;;20.73;nan;-24393.59;5012580;28;20230;-75
2023/03/26 12:47:53;;;;;;;0.90;0.90;;;;;;;20.68;nan;-24392.19;5011888;28;20169;-75
2023/03/26 12:50:23;;;;;;;1.40;0.98;;;;;;;20.76;nan;-24394.16;5012238;28;20662;-73
2023/03/26 12:52:52;;;;;;;1.30;1.05;;;;;;;20.91;nan;-24398.31;5012119;28;20164;-75
2023/03/26 12:55:42;;;;;;;1.63;1.00;;;;;;;21.02;nan;-24401.34;5043965;28;20250;-77
2023/03/26 12:58:18;;;;;;;1.25;1.15;;;;;;;20.87;nan;-24397.34;5011052;28;20238;-77
2023/03/26 13:01:05;;;;;;;1.13;1.02;;;;;;;20.79;nan;-24395.13;5012286;28;20195;-73
2023/03/26 13:03:33;;;;;;;0.93;0.93;;;;;;;20.76;nan;-24394.16;5011874;28;20253;-76
2023/03/26 13:06:23;;;;;;;0.82;0.82;;;;;;;20.95;nan;-24399.41;5047861;28;20263;-73
2023/03/26 13:09:10;;;;;;;1.15;1.05;;;;;;;20.35;nan;-24383.03;5047137;28;20677;-74
2023/03/26 13:12:01;;;;;;;1.00;0.90;;;;;;;20.98;nan;-24400.38;5015438;28;20239;-75
2023/03/26 13:14:38;;;;;;;1.10;1.00;;;;;;;20.86;nan;-24396.91;5014493;28;20289;-75
2023/03/26 13:17:25;;;;;;;1.20;1.00;;;;;;;20.83;nan;-24396.09;5016006;28;20160;-76
2023/03/26 13:20:10;;;;;;;1.85;1.08;;;;;;;20.76;nan;-24394.16;5016081;28;20670;-76
2023/03/26 13:22:51;;;;;;;1.10;1.00;;;;;;;20.94;nan;-24399.28;5052250;28;20195;-74
2023/03/26 13:25:22;;;;;;;1.13;1.02;;;;;;;20.64;nan;-24390.97;5016315;28;20215;-75
2023/03/26 13:28:06;;;;;;;1.20;1.00;;;;;;;21.03;nan;-24401.78;5047886;28;20271;-75
2023/03/26 13:30:50;;;;;;;1.58;1.20;;;;;;;20.88;nan;-24397.63;5015654;28;20178;-73
2023/03/26 13:33:41;;;;;;;1.33;1.10;;;;;;;20.77;nan;-24394.41;5015674;28;20176;-73
2023/03/26 13:36:17;;;;;;;1.23;1.13;;;;;;;20.61;nan;-24390.25;5013953;28;20188;-74
2023/03/26 13:39:02;;;;;;;2.35;1.40;;;;;;;21.12;nan;-24404.28;5015048;28;20178;-75
2023/03/26 13:41:40;;;;;;;1.75;1.20;;;;;;;20.73;nan;-24393.44;5016022;28;20259;-75
2023/03/26 13:44:22;;;;;;;1.77;1.30;;;;;;;20.68;nan;-24392.19;5015823;28;20179;-70
2023/03/26 13:47:13;;;;;;;2.17;1.20;;;;;;;21.00;nan;-24400.94;5015128;28;20218;-74
2023/03/26 13:49:47;;;;;;;3.08;1.40;;;;;;;20.51;nan;-24387.50;5015181;28;20187;-72
2023/03/26 13:52:13;;;;;;;1.63;1.10;;;;;;;20.85;nan;-24396.78;5013031;28;20248;-71
2023/03/26 13:54:52;;;;;;;1.98;1.25;;;;;;;20.88;nan;-24397.63;5010075;28;20263;-70
2023/03/26 13:57:47;;;;;;;1.17;1.08;;;;;;;20.51;nan;-24387.34;5002249;28;20695;-69
2023/03/26 14:00:20;;;;;;;1.75;1.40;;;;;;;20.94;nan;-24399.28;5014473;28;20310;-71
2023/03/26 14:02:52;;;;;;;1.40;1.25;;;;;;;20.96;nan;-24399.69;5014754;28;20168;-78
2023/03/26 14:05:34;;;;;;;1.67;1.23;;;;;;;20.92;nan;-24398.72;5014315;28;20182;-74
2023/03/26 14:08:04;;;;;;;1.70;1.27;;;;;;;20.88;nan;-24397.47;5014518;28;20180;-70
2023/03/26 14:10:41;;;;;;;2.15;1.50;;;;;;;20.68;nan;-24392.06;5014995;28;20180;-73
2023/03/26 14:13:28;;;;;;;3.45;1.33;;;;;;;20.96;nan;-24399.69;5008558;28;20180;-72
2023/03/26 14:16:07;;;;;;;2.40;1.60;;;;;;;20.85;nan;-24396.66;5013782;28;20268;-75